sensor_id;sensor_type;location;lat;lon;timestamp;temperature;humidity
57636;DHT22;43465;50.728;4.160;2023-08-06T00:00:22;17.00;99.90
57636;DHT22;43465;50.728;4.160;2023-08-06T00:02:48;17.00;99.90
57636;DHT22;43465;50.728;4.160;2023-08-06T00:05:14;17.00;99.90
57636;DHT22;43465;50.728;4.160;2023-08-06T00:07:44;17.10;99.90
57636;DHT22;43465;50.728;4.160;2023-08-06T00:10:10;17.10;99.90
57636;DHT22;43465;50.728;4.160;2023-08-06T00:12:36;17.10;99.90
57636;DHT22;43465;50.728;4.160;2023-08-06T00:15:01;17.10;99.90
57636;DHT22;43465;50.728;4.160;2023-08-06T00:17:27;17.20;99.90
57636;DHT22;43465;50.728;4.160;2023-08-06T00:19:53;17.20;99.90
57636;DHT22;43465;50.728;4.160;2023-08-06T00:22:18;17.20;99.90
57636;DHT22;43465;50.728;4.160;2023-08-06T00:24:44;17.20;99.90
57636;DHT22;43465;50.728;4.160;2023-08-06T00:27:10;17.20;99.90
57636;DHT22;43465;50.728;4.160;2023-08-06T00:29:35;17.20;99.90
57636;DHT22;43465;50.728;4.160;2023-08-06T00:32:01;17.20;99.90
57636;DHT22;43465;50.728;4.160;2023-08-06T00:34:27;17.20;99.90
57636;DHT22;43465;50.728;4.160;2023-08-06T00:36:52;17.20;99.90
57636;DHT22;43465;50.728;4.160;2023-08-06T00:39:19;17.30;99.90
57636;DHT22;43465;50.728;4.160;2023-08-06T00:41:45;17.30;99.90
57636;DHT22;43465;50.728;4.160;2023-08-06T00:44:10;17.30;99.90
57636;DHT22;43465;50.728;4.160;2023-08-06T00:46:36;17.30;99.90
57636;DHT22;43465;50.728;4.160;2023-08-06T00:49:01;17.20;99.90
57636;DHT22;43465;50.728;4.160;2023-08-06T00:51:27;17.30;99.90
57636;DHT22;43465;50.728;4.160;2023-08-06T00:53:54;17.20;99.90
57636;DHT22;43465;50.728;4.160;2023-08-06T00:56:20;17.30;99.90
57636;DHT22;43465;50.728;4.160;2023-08-06T00:58:46;17.30;99.90
57636;DHT22;43465;50.728;4.160;2023-08-06T01:01:12;17.30;99.90
57636;DHT22;43465;50.728;4.160;2023-08-06T01:03:38;17.20;99.90
57636;DHT22;43465;50.728;4.160;2023-08-06T01:06:04;17.20;99.90
57636;DHT22;43465;50.728;4.160;2023-08-06T01:13:58;17.20;99.90
57636;DHT22;43465;50.728;4.160;2023-08-06T01:16:25;17.20;99.90
57636;DHT22;43465;50.728;4.160;2023-08-06T01:18:51;17.20;99.90
57636;DHT22;43465;50.728;4.160;2023-08-06T01:21:17;17.20;99.90
57636;DHT22;43465;50.728;4.160;2023-08-06T01:23:43;17.20;99.90
57636;DHT22;43465;50.728;4.160;2023-08-06T01:26:24;17.20;99.90
57636;DHT22;43465;50.728;4.160;2023-08-06T01:31:38;17.10;99.90
57636;DHT22;43465;50.728;4.160;2023-08-06T01:34:17;17.10;99.90
57636;DHT22;43465;50.728;4.160;2023-08-06T01:36:45;17.20;99.90
57636;DHT22;43465;50.728;4.160;2023-08-06T01:39:10;17.20;99.90
57636;DHT22;43465;50.728;4.160;2023-08-06T01:41:36;17.20;99.90
57636;DHT22;43465;50.728;4.160;2023-08-06T01:44:02;17.10;99.90
57636;DHT22;43465;50.728;4.160;2023-08-06T01:46:27;17.10;99.90
57636;DHT22;43465;50.728;4.160;2023-08-06T01:48:53;17.10;99.90
57636;DHT22;43465;50.728;4.160;2023-08-06T01:51:18;17.10;99.90
57636;DHT22;43465;50.728;4.160;2023-08-06T01:53:44;17.10;99.90
57636;DHT22;43465;50.728;4.160;2023-08-06T01:56:10;17.10;99.90
57636;DHT22;43465;50.728;4.160;2023-08-06T01:58:35;17.00;99.90
57636;DHT22;43465;50.728;4.160;2023-08-06T02:01:02;17.00;99.90
57636;DHT22;43465;50.728;4.160;2023-08-06T02:03:27;17.00;99.90
57636;DHT22;43465;50.728;4.160;2023-08-06T02:05:53;17.00;99.90
57636;DHT22;43465;50.728;4.160;2023-08-06T02:08:18;17.00;99.90
57636;DHT22;43465;50.728;4.160;2023-08-06T02:10:45;17.00;99.90
57636;DHT22;43465;50.728;4.160;2023-08-06T02:13:10;17.00;99.90
57636;DHT22;43465;50.728;4.160;2023-08-06T02:15:42;16.90;99.90
57636;DHT22;43465;50.728;4.160;2023-08-06T02:18:08;16.90;99.90
57636;DHT22;43465;50.728;4.160;2023-08-06T02:20:33;16.80;99.90
57636;DHT22;43465;50.728;4.160;2023-08-06T02:22:59;16.80;99.90
57636;DHT22;43465;50.728;4.160;2023-08-06T02:25:24;16.70;99.90
57636;DHT22;43465;50.728;4.160;2023-08-06T02:27:50;16.60;99.90
57636;DHT22;43465;50.728;4.160;2023-08-06T02:30:16;16.40;99.90
57636;DHT22;43465;50.728;4.160;2023-08-06T02:32:41;16.20;99.90
57636;DHT22;43465;50.728;4.160;2023-08-06T02:35:07;16.10;99.90
57636;DHT22;43465;50.728;4.160;2023-08-06T02:37:34;16.10;99.90
57636;DHT22;43465;50.728;4.160;2023-08-06T02:39:59;16.00;99.90
57636;DHT22;43465;50.728;4.160;2023-08-06T02:42:25;16.00;99.90
57636;DHT22;43465;50.728;4.160;2023-08-06T02:44:52;15.90;99.90
57636;DHT22;43465;50.728;4.160;2023-08-06T02:47:20;15.90;99.90
57636;DHT22;43465;50.728;4.160;2023-08-06T02:49:46;15.80;99.90
57636;DHT22;43465;50.728;4.160;2023-08-06T02:52:12;15.90;99.90
57636;DHT22;43465;50.728;4.160;2023-08-06T02:54:37;15.90;99.90
57636;DHT22;43465;50.728;4.160;2023-08-06T02:57:04;15.90;99.90
57636;DHT22;43465;50.728;4.160;2023-08-06T02:59:30;15.90;99.90
57636;DHT22;43465;50.728;4.160;2023-08-06T03:01:56;15.90;99.90
57636;DHT22;43465;50.728;4.160;2023-08-06T03:04:22;15.90;99.90
57636;DHT22;43465;50.728;4.160;2023-08-06T03:06:50;15.90;99.90
57636;DHT22;43465;50.728;4.160;2023-08-06T03:09:16;15.90;99.90
57636;DHT22;43465;50.728;4.160;2023-08-06T03:11:42;15.90;99.90
57636;DHT22;43465;50.728;4.160;2023-08-06T03:14:08;15.80;99.90
57636;DHT22;43465;50.728;4.160;2023-08-06T03:16:33;15.60;99.90
57636;DHT22;43465;50.728;4.160;2023-08-06T03:18:59;15.50;99.90
57636;DHT22;43465;50.728;4.160;2023-08-06T03:21:25;15.40;99.90
57636;DHT22;43465;50.728;4.160;2023-08-06T03:23:50;15.30;99.90
57636;DHT22;43465;50.728;4.160;2023-08-06T03:26:16;15.30;99.90
57636;DHT22;43465;50.728;4.160;2023-08-06T03:28:42;15.30;99.90
57636;DHT22;43465;50.728;4.160;2023-08-06T03:31:07;15.30;99.90
57636;DHT22;43465;50.728;4.160;2023-08-06T03:33:33;15.30;99.90
57636;DHT22;43465;50.728;4.160;2023-08-06T03:35:59;15.30;99.90
57636;DHT22;43465;50.728;4.160;2023-08-06T03:38:25;15.30;99.90
57636;DHT22;43465;50.728;4.160;2023-08-06T03:40:50;15.20;99.90
57636;DHT22;43465;50.728;4.160;2023-08-06T03:43:16;15.10;99.90
57636;DHT22;43465;50.728;4.160;2023-08-06T03:45:41;14.90;99.90
57636;DHT22;43465;50.728;4.160;2023-08-06T03:48:08;14.80;99.90
57636;DHT22;43465;50.728;4.160;2023-08-06T03:50:34;14.70;99.90
57636;DHT22;43465;50.728;4.160;2023-08-06T03:52:59;14.70;99.90
57636;DHT22;43465;50.728;4.160;2023-08-06T03:55:25;14.70;99.90
57636;DHT22;43465;50.728;4.160;2023-08-06T03:57:52;14.60;99.90
57636;DHT22;43465;50.728;4.160;2023-08-06T04:00:18;14.70;99.90
57636;DHT22;43465;50.728;4.160;2023-08-06T04:02:44;14.70;99.90
57636;DHT22;43465;50.728;4.160;2023-08-06T04:05:10;14.70;99.90
57636;DHT22;43465;50.728;4.160;2023-08-06T04:07:35;14.70;99.90
57636;DHT22;43465;50.728;4.160;2023-08-06T04:10:03;14.60;99.90
57636;DHT22;43465;50.728;4.160;2023-08-06T04:12:29;14.60;99.90
57636;DHT22;43465;50.728;4.160;2023-08-06T04:14:57;14.50;99.90
57636;DHT22;43465;50.728;4.160;2023-08-06T04:17:22;14.50;99.90
57636;DHT22;43465;50.728;4.160;2023-08-06T04:19:53;14.50;99.90
57636;DHT22;43465;50.728;4.160;2023-08-06T04:22:20;14.50;99.90
57636;DHT22;43465;50.728;4.160;2023-08-06T04:24:47;14.50;99.90
57636;DHT22;43465;50.728;4.160;2023-08-06T04:27:14;14.40;99.90
57636;DHT22;43465;50.728;4.160;2023-08-06T04:29:39;14.40;99.90
57636;DHT22;43465;50.728;4.160;2023-08-06T04:32:07;14.30;99.90
57636;DHT22;43465;50.728;4.160;2023-08-06T04:34:34;14.30;99.90
57636;DHT22;43465;50.728;4.160;2023-08-06T04:37:00;14.30;99.90
57636;DHT22;43465;50.728;4.160;2023-08-06T04:39:26;14.30;99.90
57636;DHT22;43465;50.728;4.160;2023-08-06T04:41:52;14.30;99.90
57636;DHT22;43465;50.728;4.160;2023-08-06T04:44:18;14.30;99.90
57636;DHT22;43465;50.728;4.160;2023-08-06T04:46:43;14.30;99.90
57636;DHT22;43465;50.728;4.160;2023-08-06T04:49:09;14.30;99.90
57636;DHT22;43465;50.728;4.160;2023-08-06T04:51:35;14.40;99.90
57636;DHT22;43465;50.728;4.160;2023-08-06T04:54:00;14.40;99.90
57636;DHT22;43465;50.728;4.160;2023-08-06T04:56:26;14.40;99.90
57636;DHT22;43465;50.728;4.160;2023-08-06T04:58:52;14.40;99.90
57636;DHT22;43465;50.728;4.160;2023-08-06T05:01:18;14.40;99.90
57636;DHT22;43465;50.728;4.160;2023-08-06T05:03:43;14.50;99.90
57636;DHT22;43465;50.728;4.160;2023-08-06T05:06:09;14.50;99.90
57636;DHT22;43465;50.728;4.160;2023-08-06T05:08:36;14.50;99.90
57636;DHT22;43465;50.728;4.160;2023-08-06T05:11:01;14.60;99.90
57636;DHT22;43465;50.728;4.160;2023-08-06T05:13:27;14.60;99.90
57636;DHT22;43465;50.728;4.160;2023-08-06T05:15:56;14.60;99.90
57636;DHT22;43465;50.728;4.160;2023-08-06T05:18:21;14.70;99.90
57636;DHT22;43465;50.728;4.160;2023-08-06T05:20:47;14.70;99.90
57636;DHT22;43465;50.728;4.160;2023-08-06T05:23:13;14.70;99.90
57636;DHT22;43465;50.728;4.160;2023-08-06T05:25:39;14.70;99.90
57636;DHT22;43465;50.728;4.160;2023-08-06T05:28:05;14.70;99.90
57636;DHT22;43465;50.728;4.160;2023-08-06T05:30:30;14.70;99.90
57636;DHT22;43465;50.728;4.160;2023-08-06T05:32:56;14.70;99.90
57636;DHT22;43465;50.728;4.160;2023-08-06T05:35:22;14.70;99.90
57636;DHT22;43465;50.728;4.160;2023-08-06T05:37:49;14.60;99.90
57636;DHT22;43465;50.728;4.160;2023-08-06T05:40:15;14.60;99.90
57636;DHT22;43465;50.728;4.160;2023-08-06T05:42:41;14.70;99.90
57636;DHT22;43465;50.728;4.160;2023-08-06T05:45:07;14.70;99.90
57636;DHT22;43465;50.728;4.160;2023-08-06T05:47:33;14.70;99.90
57636;DHT22;43465;50.728;4.160;2023-08-06T05:49:59;14.70;99.90
57636;DHT22;43465;50.728;4.160;2023-08-06T05:52:25;14.80;99.90
57636;DHT22;43465;50.728;4.160;2023-08-06T05:54:50;14.90;99.90
57636;DHT22;43465;50.728;4.160;2023-08-06T05:57:16;14.90;99.90
57636;DHT22;43465;50.728;4.160;2023-08-06T05:59:42;14.90;99.90
57636;DHT22;43465;50.728;4.160;2023-08-06T06:02:08;14.90;99.90
57636;DHT22;43465;50.728;4.160;2023-08-06T06:04:34;14.90;99.90
57636;DHT22;43465;50.728;4.160;2023-08-06T06:06:59;14.90;99.90
57636;DHT22;43465;50.728;4.160;2023-08-06T06:09:25;14.90;99.90
57636;DHT22;43465;50.728;4.160;2023-08-06T06:11:51;14.90;99.90
57636;DHT22;43465;50.728;4.160;2023-08-06T06:14:17;14.90;99.90
57636;DHT22;43465;50.728;4.160;2023-08-06T06:16:43;15.00;99.90
57636;DHT22;43465;50.728;4.160;2023-08-06T06:19:08;15.00;99.90
57636;DHT22;43465;50.728;4.160;2023-08-06T06:21:34;15.00;99.90
57636;DHT22;43465;50.728;4.160;2023-08-06T06:24:00;15.10;99.90
57636;DHT22;43465;50.728;4.160;2023-08-06T06:26:25;15.10;99.90
57636;DHT22;43465;50.728;4.160;2023-08-06T06:28:51;15.10;99.90
57636;DHT22;43465;50.728;4.160;2023-08-06T06:31:17;15.10;99.90
57636;DHT22;43465;50.728;4.160;2023-08-06T06:33:42;15.10;99.90
57636;DHT22;43465;50.728;4.160;2023-08-06T06:36:08;15.10;99.90
57636;DHT22;43465;50.728;4.160;2023-08-06T06:38:35;15.20;99.90
57636;DHT22;43465;50.728;4.160;2023-08-06T06:41:00;15.20;99.90
57636;DHT22;43465;50.728;4.160;2023-08-06T06:43:28;15.20;99.90
57636;DHT22;43465;50.728;4.160;2023-08-06T06:45:56;15.30;99.90
57636;DHT22;43465;50.728;4.160;2023-08-06T06:48:23;15.20;99.90
57636;DHT22;43465;50.728;4.160;2023-08-06T06:50:48;15.10;99.90
57636;DHT22;43465;50.728;4.160;2023-08-06T06:53:14;15.00;99.90
57636;DHT22;43465;50.728;4.160;2023-08-06T06:55:40;15.00;99.90
57636;DHT22;43465;50.728;4.160;2023-08-06T06:58:06;14.90;99.90
57636;DHT22;43465;50.728;4.160;2023-08-06T07:00:31;15.00;99.90
57636;DHT22;43465;50.728;4.160;2023-08-06T07:02:57;15.00;99.90
57636;DHT22;43465;50.728;4.160;2023-08-06T07:05:22;15.00;99.90
57636;DHT22;43465;50.728;4.160;2023-08-06T07:07:48;15.00;99.90
57636;DHT22;43465;50.728;4.160;2023-08-06T07:10:13;15.00;99.90
57636;DHT22;43465;50.728;4.160;2023-08-06T07:12:39;15.00;99.90
57636;DHT22;43465;50.728;4.160;2023-08-06T07:15:06;14.90;99.90
57636;DHT22;43465;50.728;4.160;2023-08-06T07:17:32;14.90;99.90
57636;DHT22;43465;50.728;4.160;2023-08-06T07:19:58;15.00;99.90
57636;DHT22;43465;50.728;4.160;2023-08-06T07:22:23;15.00;99.90
57636;DHT22;43465;50.728;4.160;2023-08-06T07:24:49;15.00;99.90
57636;DHT22;43465;50.728;4.160;2023-08-06T07:27:15;15.00;99.90
57636;DHT22;43465;50.728;4.160;2023-08-06T07:29:40;15.00;99.90
57636;DHT22;43465;50.728;4.160;2023-08-06T07:32:07;15.10;99.90
57636;DHT22;43465;50.728;4.160;2023-08-06T07:34:33;15.20;99.90
57636;DHT22;43465;50.728;4.160;2023-08-06T07:36:58;15.20;99.90
57636;DHT22;43465;50.728;4.160;2023-08-06T07:39:24;15.30;99.90
57636;DHT22;43465;50.728;4.160;2023-08-06T07:41:50;15.30;99.90
57636;DHT22;43465;50.728;4.160;2023-08-06T07:44:16;15.30;99.90
57636;DHT22;43465;50.728;4.160;2023-08-06T07:46:41;15.40;99.90
57636;DHT22;43465;50.728;4.160;2023-08-06T07:49:08;15.40;99.90
57636;DHT22;43465;50.728;4.160;2023-08-06T07:51:33;15.40;99.90
57636;DHT22;43465;50.728;4.160;2023-08-06T07:53:59;15.50;99.90
57636;DHT22;43465;50.728;4.160;2023-08-06T07:56:24;15.50;99.90
57636;DHT22;43465;50.728;4.160;2023-08-06T07:58:50;15.60;99.90
57636;DHT22;43465;50.728;4.160;2023-08-06T08:01:16;15.70;99.90
57636;DHT22;43465;50.728;4.160;2023-08-06T08:03:41;15.70;99.90
57636;DHT22;43465;50.728;4.160;2023-08-06T08:06:07;15.80;99.90
57636;DHT22;43465;50.728;4.160;2023-08-06T08:08:33;15.80;99.90
57636;DHT22;43465;50.728;4.160;2023-08-06T08:10:58;15.90;99.90
57636;DHT22;43465;50.728;4.160;2023-08-06T08:13:26;15.80;99.90
57636;DHT22;43465;50.728;4.160;2023-08-06T08:15:57;15.90;99.90
57636;DHT22;43465;50.728;4.160;2023-08-06T08:18:23;15.90;99.90
57636;DHT22;43465;50.728;4.160;2023-08-06T08:20:49;16.00;99.90
57636;DHT22;43465;50.728;4.160;2023-08-06T08:23:14;16.00;99.90
57636;DHT22;43465;50.728;4.160;2023-08-06T08:25:40;16.00;99.90
57636;DHT22;43465;50.728;4.160;2023-08-06T08:28:06;15.90;99.90
57636;DHT22;43465;50.728;4.160;2023-08-06T08:30:32;15.70;99.90
57636;DHT22;43465;50.728;4.160;2023-08-06T08:32:58;15.60;99.90
57636;DHT22;43465;50.728;4.160;2023-08-06T08:35:23;15.60;99.90
57636;DHT22;43465;50.728;4.160;2023-08-06T08:37:49;15.60;99.90
57636;DHT22;43465;50.728;4.160;2023-08-06T08:40:16;15.60;99.90
57636;DHT22;43465;50.728;4.160;2023-08-06T08:42:42;15.60;99.90
57636;DHT22;43465;50.728;4.160;2023-08-06T08:45:12;15.60;99.90
57636;DHT22;43465;50.728;4.160;2023-08-06T08:47:42;15.70;99.90
57636;DHT22;43465;50.728;4.160;2023-08-06T08:50:08;15.80;99.90
57636;DHT22;43465;50.728;4.160;2023-08-06T08:52:36;15.80;99.90
57636;DHT22;43465;50.728;4.160;2023-08-06T08:55:03;15.90;99.90
57636;DHT22;43465;50.728;4.160;2023-08-06T08:57:29;16.00;99.90
57636;DHT22;43465;50.728;4.160;2023-08-06T08:59:55;16.10;99.90
57636;DHT22;43465;50.728;4.160;2023-08-06T09:02:21;16.10;99.90
57636;DHT22;43465;50.728;4.160;2023-08-06T09:04:48;15.90;99.90
57636;DHT22;43465;50.728;4.160;2023-08-06T09:07:18;15.80;99.90
57636;DHT22;43465;50.728;4.160;2023-08-06T09:09:48;15.70;99.90
57636;DHT22;43465;50.728;4.160;2023-08-06T09:12:15;15.60;99.90
57636;DHT22;43465;50.728;4.160;2023-08-06T09:14:42;15.50;99.90
57636;DHT22;43465;50.728;4.160;2023-08-06T09:17:08;15.60;99.90
57636;DHT22;43465;50.728;4.160;2023-08-06T09:19:36;15.60;99.90
57636;DHT22;43465;50.728;4.160;2023-08-06T09:22:01;15.70;99.90
57636;DHT22;43465;50.728;4.160;2023-08-06T09:24:27;15.60;99.90
57636;DHT22;43465;50.728;4.160;2023-08-06T09:26:53;15.60;99.90
57636;DHT22;43465;50.728;4.160;2023-08-06T09:29:20;15.60;99.90
57636;DHT22;43465;50.728;4.160;2023-08-06T09:31:50;15.60;99.90
57636;DHT22;43465;50.728;4.160;2023-08-06T09:34:21;15.60;99.90
57636;DHT22;43465;50.728;4.160;2023-08-06T09:36:49;15.60;99.90
57636;DHT22;43465;50.728;4.160;2023-08-06T09:39:20;15.60;99.90
57636;DHT22;43465;50.728;4.160;2023-08-06T09:41:47;15.50;99.90
57636;DHT22;43465;50.728;4.160;2023-08-06T09:44:17;15.50;99.90
57636;DHT22;43465;50.728;4.160;2023-08-06T09:46:50;15.60;99.90
57636;DHT22;43465;50.728;4.160;2023-08-06T09:49:20;15.70;99.90
57636;DHT22;43465;50.728;4.160;2023-08-06T09:51:47;15.70;99.90
57636;DHT22;43465;50.728;4.160;2023-08-06T09:54:16;15.70;99.90
57636;DHT22;43465;50.728;4.160;2023-08-06T09:56:42;15.70;99.90
57636;DHT22;43465;50.728;4.160;2023-08-06T09:59:08;15.70;99.90
57636;DHT22;43465;50.728;4.160;2023-08-06T10:01:35;15.60;99.90
57636;DHT22;43465;50.728;4.160;2023-08-06T10:04:03;15.40;99.90
57636;DHT22;43465;50.728;4.160;2023-08-06T10:06:31;15.40;99.90
57636;DHT22;43465;50.728;4.160;2023-08-06T10:08:58;15.50;99.90
57636;DHT22;43465;50.728;4.160;2023-08-06T10:11:25;15.70;99.90
57636;DHT22;43465;50.728;4.160;2023-08-06T10:13:58;15.80;99.90
57636;DHT22;43465;50.728;4.160;2023-08-06T10:16:27;15.90;99.90
57636;DHT22;43465;50.728;4.160;2023-08-06T10:18:53;15.90;99.90
57636;DHT22;43465;50.728;4.160;2023-08-06T10:21:20;15.90;99.90
57636;DHT22;43465;50.728;4.160;2023-08-06T10:23:53;15.90;99.90
57636;DHT22;43465;50.728;4.160;2023-08-06T10:26:19;15.90;99.90
57636;DHT22;43465;50.728;4.160;2023-08-06T10:28:45;16.00;99.90
57636;DHT22;43465;50.728;4.160;2023-08-06T10:31:10;16.00;99.90
57636;DHT22;43465;50.728;4.160;2023-08-06T10:33:43;16.00;99.90
57636;DHT22;43465;50.728;4.160;2023-08-06T10:36:10;16.00;99.90
57636;DHT22;43465;50.728;4.160;2023-08-06T10:38:46;15.80;99.90
57636;DHT22;43465;50.728;4.160;2023-08-06T10:43:50;15.70;99.90
57636;DHT22;43465;50.728;4.160;2023-08-06T10:46:43;15.70;99.90
57636;DHT22;43465;50.728;4.160;2023-08-06T10:49:10;15.70;99.90
57636;DHT22;43465;50.728;4.160;2023-08-06T10:51:36;15.70;99.90
57636;DHT22;43465;50.728;4.160;2023-08-06T10:54:02;15.90;99.90
57636;DHT22;43465;50.728;4.160;2023-08-06T10:56:28;16.00;99.90
57636;DHT22;43465;50.728;4.160;2023-08-06T10:58:55;16.10;99.90
57636;DHT22;43465;50.728;4.160;2023-08-06T11:01:23;16.40;99.90
57636;DHT22;43465;50.728;4.160;2023-08-06T11:03:49;16.50;99.90
57636;DHT22;43465;50.728;4.160;2023-08-06T11:06:20;16.60;99.90
57636;DHT22;43465;50.728;4.160;2023-08-06T11:08:54;16.80;99.90
57636;DHT22;43465;50.728;4.160;2023-08-06T11:11:20;17.00;99.90
57636;DHT22;43465;50.728;4.160;2023-08-06T11:13:50;17.10;99.90
57636;DHT22;43465;50.728;4.160;2023-08-06T11:16:18;17.10;99.90
57636;DHT22;43465;50.728;4.160;2023-08-06T11:18:44;17.00;99.90
57636;DHT22;43465;50.728;4.160;2023-08-06T11:21:10;17.00;99.90
57636;DHT22;43465;50.728;4.160;2023-08-06T11:23:37;17.10;99.90
57636;DHT22;43465;50.728;4.160;2023-08-06T11:26:03;17.00;99.90
57636;DHT22;43465;50.728;4.160;2023-08-06T11:28:29;16.80;99.90
57636;DHT22;43465;50.728;4.160;2023-08-06T11:30:55;16.80;99.90
57636;DHT22;43465;50.728;4.160;2023-08-06T11:33:22;16.80;99.90
57636;DHT22;43465;50.728;4.160;2023-08-06T11:35:51;16.80;99.90
57636;DHT22;43465;50.728;4.160;2023-08-06T11:38:17;16.80;99.90
57636;DHT22;43465;50.728;4.160;2023-08-06T11:40:50;16.90;99.90
57636;DHT22;43465;50.728;4.160;2023-08-06T11:43:17;16.90;99.90
57636;DHT22;43465;50.728;4.160;2023-08-06T11:45:43;16.90;99.90
57636;DHT22;43465;50.728;4.160;2023-08-06T11:48:09;17.00;99.90
57636;DHT22;43465;50.728;4.160;2023-08-06T11:50:38;17.00;99.90
57636;DHT22;43465;50.728;4.160;2023-08-06T11:53:07;16.90;99.90
57636;DHT22;43465;50.728;4.160;2023-08-06T11:55:32;16.90;99.90
57636;DHT22;43465;50.728;4.160;2023-08-06T11:58:03;16.90;99.90
57636;DHT22;43465;50.728;4.160;2023-08-06T12:00:32;16.90;99.90
57636;DHT22;43465;50.728;4.160;2023-08-06T12:02:58;16.90;99.90
57636;DHT22;43465;50.728;4.160;2023-08-06T12:05:29;16.50;99.90
57636;DHT22;43465;50.728;4.160;2023-08-06T12:07:57;16.30;99.90
57636;DHT22;43465;50.728;4.160;2023-08-06T12:10:25;16.10;99.90
57636;DHT22;43465;50.728;4.160;2023-08-06T12:12:50;15.90;99.90
57636;DHT22;43465;50.728;4.160;2023-08-06T12:15:16;15.90;99.90
57636;DHT22;43465;50.728;4.160;2023-08-06T12:17:43;16.00;99.90
57636;DHT22;43465;50.728;4.160;2023-08-06T12:20:09;16.00;99.90
57636;DHT22;43465;50.728;4.160;2023-08-06T12:22:35;16.20;99.90
57636;DHT22;43465;50.728;4.160;2023-08-06T12:25:07;16.30;99.90
57636;DHT22;43465;50.728;4.160;2023-08-06T12:27:34;16.40;99.90
57636;DHT22;43465;50.728;4.160;2023-08-06T12:30:00;16.50;99.90
57636;DHT22;43465;50.728;4.160;2023-08-06T12:32:26;16.50;99.90
57636;DHT22;43465;50.728;4.160;2023-08-06T12:34:52;16.40;99.90
57636;DHT22;43465;50.728;4.160;2023-08-06T12:37:17;16.40;99.90
57636;DHT22;43465;50.728;4.160;2023-08-06T12:39:43;16.20;99.90
57636;DHT22;43465;50.728;4.160;2023-08-06T12:42:09;16.20;99.90
57636;DHT22;43465;50.728;4.160;2023-08-06T12:44:35;16.00;99.90
57636;DHT22;43465;50.728;4.160;2023-08-06T12:47:01;15.90;99.90
57636;DHT22;43465;50.728;4.160;2023-08-06T12:49:27;15.70;99.90
57636;DHT22;43465;50.728;4.160;2023-08-06T12:51:54;15.60;99.90
57636;DHT22;43465;50.728;4.160;2023-08-06T12:54:20;15.60;99.90
57636;DHT22;43465;50.728;4.160;2023-08-06T12:56:47;15.50;99.90
57636;DHT22;43465;50.728;4.160;2023-08-06T12:59:14;15.50;99.90
57636;DHT22;43465;50.728;4.160;2023-08-06T13:01:40;15.50;99.90
57636;DHT22;43465;50.728;4.160;2023-08-06T13:04:06;15.60;99.90
57636;DHT22;43465;50.728;4.160;2023-08-06T13:06:32;15.70;99.90
57636;DHT22;43465;50.728;4.160;2023-08-06T13:09:09;15.80;99.90
57636;DHT22;43465;50.728;4.160;2023-08-06T13:11:35;15.80;99.90
57636;DHT22;43465;50.728;4.160;2023-08-06T13:14:09;15.90;99.90
57636;DHT22;43465;50.728;4.160;2023-08-06T13:16:36;16.00;99.90
57636;DHT22;43465;50.728;4.160;2023-08-06T13:19:03;16.20;99.90
57636;DHT22;43465;50.728;4.160;2023-08-06T13:24:03;16.30;99.90
57636;DHT22;43465;50.728;4.160;2023-08-06T13:26:29;16.20;99.90
57636;DHT22;43465;50.728;4.160;2023-08-06T13:28:57;16.10;99.90
57636;DHT22;43465;50.728;4.160;2023-08-06T13:31:23;16.00;99.90
57636;DHT22;43465;50.728;4.160;2023-08-06T13:33:48;16.00;99.90
57636;DHT22;43465;50.728;4.160;2023-08-06T13:36:16;16.00;99.90
57636;DHT22;43465;50.728;4.160;2023-08-06T13:38:41;16.00;99.90
57636;DHT22;43465;50.728;4.160;2023-08-06T13:41:07;16.10;99.90
57636;DHT22;43465;50.728;4.160;2023-08-06T13:43:32;16.20;99.90
57636;DHT22;43465;50.728;4.160;2023-08-06T13:45:58;16.30;99.90
57636;DHT22;43465;50.728;4.160;2023-08-06T13:48:24;16.40;99.90
57636;DHT22;43465;50.728;4.160;2023-08-06T13:50:49;16.50;99.90
57636;DHT22;43465;50.728;4.160;2023-08-06T13:53:15;16.60;99.90
57636;DHT22;43465;50.728;4.160;2023-08-06T13:55:41;16.70;99.90
57636;DHT22;43465;50.728;4.160;2023-08-06T13:58:06;16.80;99.90
57636;DHT22;43465;50.728;4.160;2023-08-06T14:00:32;16.70;99.90
57636;DHT22;43465;50.728;4.160;2023-08-06T14:02:58;16.70;99.90
57636;DHT22;43465;50.728;4.160;2023-08-06T14:05:23;16.30;99.90
57636;DHT22;43465;50.728;4.160;2023-08-06T14:07:49;16.10;99.90
57636;DHT22;43465;50.728;4.160;2023-08-06T14:10:15;16.00;99.90
57636;DHT22;43465;50.728;4.160;2023-08-06T14:12:40;15.90;99.90
57636;DHT22;43465;50.728;4.160;2023-08-06T14:15:06;15.90;99.90
57636;DHT22;43465;50.728;4.160;2023-08-06T14:17:32;15.90;99.90
57636;DHT22;43465;50.728;4.160;2023-08-06T14:19:58;16.00;99.90
57636;DHT22;43465;50.728;4.160;2023-08-06T14:22:23;15.90;99.90
57636;DHT22;43465;50.728;4.160;2023-08-06T14:24:49;15.90;99.90
57636;DHT22;43465;50.728;4.160;2023-08-06T14:27:14;16.00;99.90
57636;DHT22;43465;50.728;4.160;2023-08-06T14:29:40;16.00;99.90
57636;DHT22;43465;50.728;4.160;2023-08-06T14:32:06;16.00;99.90
57636;DHT22;43465;50.728;4.160;2023-08-06T14:34:32;16.00;99.90
57636;DHT22;43465;50.728;4.160;2023-08-06T14:36:57;16.00;99.90
57636;DHT22;43465;50.728;4.160;2023-08-06T14:39:24;16.00;99.90
57636;DHT22;43465;50.728;4.160;2023-08-06T14:41:50;16.20;99.90
57636;DHT22;43465;50.728;4.160;2023-08-06T14:44:15;16.30;99.90
57636;DHT22;43465;50.728;4.160;2023-08-06T14:46:41;16.40;99.90
57636;DHT22;43465;50.728;4.160;2023-08-06T14:49:07;16.50;99.90
57636;DHT22;43465;50.728;4.160;2023-08-06T14:51:32;16.50;99.90
57636;DHT22;43465;50.728;4.160;2023-08-06T14:53:58;16.60;99.90
57636;DHT22;43465;50.728;4.160;2023-08-06T14:56:24;16.60;99.90
57636;DHT22;43465;50.728;4.160;2023-08-06T14:58:49;16.60;99.90
57636;DHT22;43465;50.728;4.160;2023-08-06T15:01:15;16.60;99.90
57636;DHT22;43465;50.728;4.160;2023-08-06T15:03:40;16.50;99.90
57636;DHT22;43465;50.728;4.160;2023-08-06T15:06:06;16.50;99.90
57636;DHT22;43465;50.728;4.160;2023-08-06T15:08:33;16.50;99.90
57636;DHT22;43465;50.728;4.160;2023-08-06T15:10:58;16.40;99.90
57636;DHT22;43465;50.728;4.160;2023-08-06T15:13:27;16.40;99.90
57636;DHT22;43465;50.728;4.160;2023-08-06T15:15:53;16.40;99.90
57636;DHT22;43465;50.728;4.160;2023-08-06T15:18:18;16.40;99.90
57636;DHT22;43465;50.728;4.160;2023-08-06T15:20:44;16.40;99.90
57636;DHT22;43465;50.728;4.160;2023-08-06T15:23:10;16.40;99.90
57636;DHT22;43465;50.728;4.160;2023-08-06T15:25:36;16.60;99.90
57636;DHT22;43465;50.728;4.160;2023-08-06T15:28:01;16.70;99.90
57636;DHT22;43465;50.728;4.160;2023-08-06T15:30:27;16.70;99.90
57636;DHT22;43465;50.728;4.160;2023-08-06T15:32:53;16.70;99.90
57636;DHT22;43465;50.728;4.160;2023-08-06T15:35:18;16.80;99.90
57636;DHT22;43465;50.728;4.160;2023-08-06T15:37:44;16.90;99.90